Time;durP1;ratioP1;P1;durP2;ratioP2;P2;SDS_P1;SDS_P2;PMS_P1;PMS_P2;Temp;Humidity;BMP_temperature;BMP_pressure;BME280_temperature;BME280_humidity;BME280_pressure;Samples;Min_cycle;Max_cycle;Signal;HPM_P1;HPM_P2
2021/11/23 00:00:33;;;;;;;4.75;3.55;;;;;;;2.19;60.90;99951.32;1704035;83;21498;-58
2021/11/23 00:03:01;;;;;;;6.10;3.33;;;;;;;2.23;60.93;99949.58;1702493;82;21486;-59
2021/11/23 00:05:31;;;;;;;6.10;3.67;;;;;;;2.23;60.60;99946.98;1701936;83;21918;-59
2021/11/23 00:07:58;;;;;;;8.43;3.67;;;;;;;2.23;60.73;99943.09;1695737;83;21522;-58
2021/11/23 00:10:26;;;;;;;6.12;3.87;;;;;;;2.23;60.83;99941.35;1704119;82;21545;-58
2021/11/23 00:12:54;;;;;;;5.22;4.05;;;;;;;2.25;60.75;99943.95;1699830;82;21485;-59
2021/11/23 00:15:21;;;;;;;6.28;3.92;;;;;;;2.26;60.71;99954.33;1698937;83;21530;-59
2021/11/23 00:17:49;;;;;;;4.00;3.05;;;;;;;2.28;60.73;99951.70;1709725;83;21745;-58
2021/11/23 00:20:16;;;;;;;4.80;3.63;;;;;;;2.28;60.71;99959.07;1705275;83;20993;-59
2021/11/23 00:22:43;;;;;;;5.63;3.67;;;;;;;2.29;60.75;99955.59;1709924;82;21584;-59
2021/11/23 00:25:12;;;;;;;5.28;3.55;;;;;;;2.30;60.68;99956.48;1692734;83;21494;-58
2021/11/23 00:27:39;;;;;;;4.50;3.67;;;;;;;2.27;60.52;99957.33;1704549;82;21043;-59
2021/11/23 00:30:06;;;;;;;4.23;3.53;;;;;;;2.25;60.56;99960.37;1705033;82;21588;-58
2021/11/23 00:32:33;;;;;;;5.33;3.75;;;;;;;2.26;60.70;99955.63;1704920;82;25797;-59
2021/11/23 00:35:00;;;;;;;8.05;4.08;;;;;;;2.26;60.77;99954.73;1702876;83;21528;-58
2021/11/23 00:37:27;;;;;;;4.15;3.58;;;;;;;2.28;60.79;99955.18;1694635;83;20981;-58
2021/11/23 00:39:55;;;;;;;6.25;4.00;;;;;;;2.28;60.78;99953.88;1695521;82;21516;-58
2021/11/23 00:42:22;;;;;;;7.28;4.28;;;;;;;2.26;60.85;99950.44;1700205;83;21810;-58
2021/11/23 00:44:49;;;;;;;6.37;4.30;;;;;;;2.22;60.85;99948.70;1736774;80;21560;-58
2021/11/23 00:47:16;;;;;;;6.72;4.12;;;;;;;2.21;60.99;99957.37;1737414;82;21396;-58
2021/11/23 00:49:43;;;;;;;5.63;4.57;;;;;;;2.24;61.14;99959.95;1739675;80;21417;-58
2021/11/23 00:52:10;;;;;;;5.78;4.33;;;;;;;2.22;61.11;99961.67;1735380;80;21431;-58
2021/11/23 00:54:37;;;;;;;7.63;4.83;;;;;;;2.19;61.21;99964.73;1739691;80;21448;-58
2021/11/23 00:57:04;;;;;;;6.53;4.43;;;;;;;2.17;61.08;99959.55;1735400;80;21527;-58
2021/11/23 00:59:34;;;;;;;6.70;4.50;;;;;;;2.16;61.17;99968.63;1738434;80;21581;-58
2021/11/23 01:02:01;;;;;;;6.22;4.80;;;;;;;2.16;61.09;99975.11;1727722;82;21687;-58
2021/11/23 01:04:28;;;;;;;5.80;4.95;;;;;;;2.07;61.18;99982.06;1732056;80;20975;-58
2021/11/23 01:06:55;;;;;;;7.67;5.40;;;;;;;2.05;61.27;99977.73;1736172;81;21817;-58
2021/11/23 01:09:23;;;;;;;7.00;4.83;;;;;;;1.99;61.35;99979.91;1692411;83;21518;-58
2021/11/23 01:11:50;;;;;;;7.95;5.35;;;;;;;2.00;61.58;99978.16;1729846;80;25712;-58
2021/11/23 01:14:17;;;;;;;7.47;4.90;;;;;;;2.02;61.67;99988.13;1734198;80;21573;-58
2021/11/23 01:16:47;;;;;;;5.83;4.53;;;;;;;2.00;61.76;99976.88;1699410;82;21433;-58
2021/11/23 01:19:12;;;;;;;7.00;4.87;;;;;;;2.03;61.80;99989.40;1698598;83;21530;-59
2021/11/23 01:21:39;;;;;;;5.20;4.00;;;;;;;2.04;61.85;99987.69;1696031;83;21604;-58
2021/11/23 01:24:06;;;;;;;5.97;4.17;;;;;;;2.05;61.88;99993.29;1696090;83;21558;-58
2021/11/23 01:26:33;;;;;;;5.83;4.55;;;;;;;2.04;61.75;99991.59;1728310;81;21610;-58
2021/11/23 01:29:01;;;;;;;7.58;4.25;;;;;;;2.00;61.79;99992.02;1729801;80;20970;-58
2021/11/23 01:31:28;;;;;;;7.53;5.05;;;;;;;1.99;61.89;99992.87;1727461;80;21783;-58
2021/11/23 01:33:55;;;;;;;7.12;4.40;;;;;;;1.98;61.89;99998.95;1734441;82;21030;-58
2021/11/23 01:36:23;;;;;;;6.37;4.00;;;;;;;1.96;61.80;99999.39;1729142;81;21562;-58
2021/11/23 01:38:50;;;;;;;5.85;4.25;;;;;;;1.85;62.05;99991.62;1686086;83;21498;-58
2021/11/23 01:41:17;;;;;;;6.78;4.30;;;;;;;1.82;62.53;99994.20;1723167;80;21483;-58
2021/11/23 01:43:44;;;;;;;10.20;4.10;;;;;;;1.83;62.49;99995.95;1732923;82;21837;-58
2021/11/23 01:46:11;;;;;;;6.30;3.85;;;;;;;1.82;62.58;100000.69;1720661;81;21448;-58
2021/11/23 01:48:39;;;;;;;8.55;4.30;;;;;;;1.77;62.66;99998.97;1726771;81;21614;-59
2021/11/23 01:51:07;;;;;;;8.50;3.90;;;;;;;1.69;62.83;99996.38;1723268;81;21042;-58
2021/11/23 01:53:35;;;;;;;10.08;3.95;;;;;;;1.65;63.16;99995.52;1731299;82;21416;-58
2021/11/23 01:56:02;;;;;;;6.62;3.72;;;;;;;1.58;63.28;100000.27;1721266;80;21767;-58
2021/11/23 01:58:31;;;;;;;8.00;4.90;;;;;;;1.52;63.37;99995.95;1718305;81;21498;-58
2021/11/23 02:00:58;;;;;;;7.72;3.85;;;;;;;1.52;63.35;99998.55;1681964;84;21535;-58
2021/11/23 02:03:25;;;;;;;7.28;4.05;;;;;;;1.53;63.45;99998.14;1720106;82;21483;-59
2021/11/23 02:05:52;;;;;;;7.67;4.30;;;;;;;1.51;63.45;99999.42;1722601;81;21511;-58
2021/11/23 02:08:19;;;;;;;6.30;4.30;;;;;;;1.51;63.36;99995.54;1733500;80;21596;-59
2021/11/23 02:10:47;;;;;;;5.50;3.50;;;;;;;1.50;63.34;100000.28;1715973;80;21471;-58
2021/11/23 02:13:14;;;;;;;7.30;4.27;;;;;;;1.48;63.03;99999.41;1690866;82;21507;-58
2021/11/23 02:15:41;;;;;;;6.70;4.05;;;;;;;1.45;63.15;99994.25;1687220;83;21064;-58
2021/11/23 02:18:19;;;;;;;9.45;4.30;;;;;;;1.45;63.22;99997.25;1696554;82;21606;-59
2021/11/23 02:20:46;;;;;;;5.97;3.55;;;;;;;1.39;63.29;99998.55;1683404;82;21801;-58
2021/11/23 02:23:13;;;;;;;6.50;3.90;;;;;;;1.32;63.45;99997.71;1683181;84;21038;-58
2021/11/23 02:25:41;;;;;;;5.65;3.62;;;;;;;1.22;63.69;100003.29;1690524;84;21060;-59
2021/11/23 02:28:08;;;;;;;7.03;4.05;;;;;;;1.19;63.83;100006.30;1683067;82;21439;-59
2021/11/23 02:30:49;;;;;;;5.35;3.87;;;;;;;1.20;63.82;100005.02;1689631;82;21521;-59
2021/11/23 02:33:19;;;;;;;6.08;3.90;;;;;;;1.19;63.70;99998.12;1687421;84;21803;-59
2021/11/23 02:35:46;;;;;;;7.12;3.90;;;;;;;1.21;63.70;99998.13;1679517;83;21139;-59
2021/11/23 02:38:13;;;;;;;7.53;4.30;;;;;;;1.24;63.61;99997.67;1688064;83;21545;-59
2021/11/23 02:40:40;;;;;;;6.47;4.03;;;;;;;1.26;63.28;100009.34;1688919;83;21592;-59
2021/11/23 02:43:07;;;;;;;7.45;4.30;;;;;;;1.29;63.42;100010.65;1735447;80;21399;-59
2021/11/23 02:45:34;;;;;;;5.90;3.80;;;;;;;1.29;63.49;100008.06;1734795;80;21735;-59
2021/11/23 02:48:01;;;;;;;4.50;3.85;;;;;;;1.32;63.36;100003.75;1728475;80;21471;-59
2021/11/23 02:50:29;;;;;;;8.20;3.85;;;;;;;1.38;63.33;100008.06;1734592;80;21498;-59
2021/11/23 02:52:56;;;;;;;5.80;3.90;;;;;;;1.39;63.23;100012.81;1724095;82;21735;-58
2021/11/23 02:55:25;;;;;;;8.03;3.63;;;;;;;1.40;63.07;100015.84;1734926;80;21735;-59
2021/11/23 02:57:53;;;;;;;6.42;3.35;;;;;;;1.38;63.03;100013.25;1728027;80;21968;-58
2021/11/23 03:00:24;;;;;;;4.90;3.72;;;;;;;1.36;62.93;100011.95;1733881;80;21433;-59
2021/11/23 03:02:52;;;;;;;5.58;3.87;;;;;;;1.34;62.99;100008.49;1733583;80;21479;-58
2021/11/23 03:05:20;;;;;;;5.10;3.65;;;;;;;1.28;62.99;100008.91;1729658;80;21486;-58
2021/11/23 03:07:48;;;;;;;4.62;3.65;;;;;;;1.20;63.16;100015.81;1733467;81;21613;-58
2021/11/23 03:10:17;;;;;;;4.65;3.50;;;;;;;1.10;63.19;100018.83;1738876;80;21739;-59
2021/11/23 03:12:47;;;;;;;5.80;4.03;;;;;;;0.98;63.21;100022.27;1665947;83;21486;-58
2021/11/23 03:15:14;;;;;;;5.00;3.50;;;;;;;0.88;63.30;100024.38;1700759;83;20994;-58
2021/11/23 03:17:41;;;;;;;5.42;3.90;;;;;;;0.80;63.41;100024.37;1700967;83;21536;-58
2021/11/23 03:20:10;;;;;;;5.47;3.55;;;;;;;0.74;63.59;100030.83;1700176;83;21454;-58
2021/11/23 03:22:39;;;;;;;6.85;4.15;;;;;;;0.71;63.48;100030.80;1703647;83;21721;-58
2021/11/23 03:25:07;;;;;;;5.72;3.58;;;;;;;0.62;63.53;100034.21;1697099;82;21013;-59
2021/11/23 03:27:35;;;;;;;6.03;3.20;;;;;;;0.57;63.58;100033.35;1694832;82;21455;-59
2021/11/23 03:30:04;;;;;;;5.70;4.00;;;;;;;0.53;63.58;100032.91;1690008;83;21590;-58
2021/11/23 03:32:32;;;;;;;4.35;3.33;;;;;;;0.48;63.67;100030.28;1699074;83;20978;-58
2021/11/23 03:34:59;;;;;;;4.20;3.47;;;;;;;0.47;63.89;100037.63;1690424;82;21774;-58
2021/11/23 03:37:26;;;;;;;5.47;3.73;;;;;;;0.47;64.06;100038.03;1696703;83;20950;-59
2021/11/23 03:39:54;;;;;;;;;;;;;;;0.47;64.08;100030.27;1685320;83;21706;-58
2021/11/23 03:42:21;;;;;;;8.70;4.17;;;;;;;0.44;64.22;100032.86;1679618;83;20442;-59
2021/11/23 03:44:48;;;;;;;7.37;4.20;;;;;;;0.41;64.17;100031.55;1664882;84;21676;-58
2021/11/23 03:47:17;;;;;;;6.33;4.25;;;;;;;0.35;64.22;100031.09;1726647;81;22058;-58
2021/11/23 03:49:46;;;;;;;6.50;4.45;;;;;;;0.28;64.22;100032.77;1723346;80;21570;-59
2021/11/23 03:52:13;;;;;;;7.20;4.90;;;;;;;0.23;64.28;100039.66;1679420;84;21506;-58
2021/11/23 03:54:40;;;;;;;6.58;4.05;;;;;;;0.19;64.20;100046.53;1675456;83;21551;-58
2021/11/23 03:57:08;;;;;;;8.33;4.58;;;;;;;0.15;64.37;100037.44;1694855;84;21432;-58
2021/11/23 03:59:34;;;;;;;7.67;4.45;;;;;;;0.11;64.54;100034.40;1693708;83;21830;-58
2021/11/23 04:02:02;;;;;;;6.87;4.58;;;;;;;0.09;64.54;100031.80;1726152;80;25674;-58
2021/11/23 04:04:29;;;;;;;5.97;4.42;;;;;;;0.05;64.38;100036.52;1720188;81;21566;-59
2021/11/23 04:06:58;;;;;;;7.37;4.45;;;;;;;0.01;64.32;100038.66;1712237;81;21472;-58
2021/11/23 04:09:25;;;;;;;6.60;4.03;;;;;;;-0.03;64.42;100035.62;1733984;82;21435;-58
2021/11/23 04:11:52;;;;;;;10.23;4.50;;;;;;;-0.03;64.56;100036.91;1721993;80;21766;-58
2021/11/23 04:14:19;;;;;;;6.43;4.30;;;;;;;-0.05;64.51;100031.72;1728815;81;21521;-59
2021/11/23 04:16:46;;;;;;;8.85;4.45;;;;;;;-0.04;64.78;100032.17;1722802;82;22131;-58
2021/11/23 04:19:12;;;;;;;8.23;4.67;;;;;;;-0.04;64.65;100033.47;1720245;81;21571;-58
2021/11/23 04:21:40;;;;;;;5.77;3.73;;;;;;;-0.03;64.71;100032.59;1725776;81;21603;-59
2021/11/23 04:24:07;;;;;;;6.77;4.03;;;;;;;-0.01;64.79;100030.03;1715858;80;22010;-58
2021/11/23 04:26:34;;;;;;;5.87;4.47;;;;;;;0.02;64.70;100021.41;1722374;81;21414;-59
2021/11/23 04:29:01;;;;;;;6.45;4.17;;;;;;;0.03;64.90;100021.87;1722075;81;21455;-58
2021/11/23 04:31:28;;;;;;;6.27;3.73;;;;;;;0.06;64.95;100020.16;1723568;81;21408;-58
2021/11/23 04:33:55;;;;;;;12.23;7.00;;;;;;;0.09;64.94;100023.19;1719570;81;21585;-58
2021/11/23 04:36:22;;;;;;;8.00;7.10;;;;;;;0.13;64.95;100023.63;1721267;80;21779;-59
2021/11/23 04:38:49;;;;;;;6.90;6.00;;;;;;;0.13;64.95;100022.34;1736626;81;21490;-59
2021/11/23 04:41:16;;;;;;;13.57;8.27;;;;;;;0.13;64.92;100016.77;1744039;80;21502;-59
2021/11/23 04:43:43;;;;;;;14.93;7.97;;;;;;;0.15;65.22;100020.63;1739984;80;21531;-59
2021/11/23 04:46:11;;;;;;;11.43;7.00;;;;;;;0.16;65.14;100019.34;1738046;80;21553;-59
2021/11/23 04:48:38;;;;;;;13.75;5.67;;;;;;;0.19;65.06;100018.52;1742816;80;21819;-58
2021/11/23 04:52:38;;;;;;;7.67;5.22;;;;;;;0.28;65.02;100012.51;1783464;78;23202;-60
2021/11/23 04:55:07;;;;;;;9.63;5.60;;;;;;;0.28;65.01;100004.31;1759745;80;21407;-60
2021/11/23 04:57:34;;;;;;;4.90;4.12;;;;;;;0.30;65.24;100006.51;1763362;80;21792;-60
2021/11/23 05:00:02;;;;;;;;;;;;;;;0.33;65.46;100000.47;1766247;80;21506;-60
2021/11/23 05:02:29;;;;;;;8.03;4.90;;;;;;;0.32;65.60;99997.03;1752236;80;20423;-60
2021/11/23 05:04:56;;;;;;;6.37;4.47;;;;;;;0.27;65.53;99987.52;1762687;79;21537;-60
2021/11/23 05:07:24;;;;;;;11.63;7.50;;;;;;;0.21;65.38;99991.34;1765692;80;21533;-60
2021/11/23 05:09:51;;;;;;;44.18;20.90;;;;;;;0.11;65.53;99987.86;1764850;80;21864;-60
2021/11/23 05:12:18;;;;;;;124.42;56.08;;;;;;;-0.02;65.79;99982.64;1763141;80;21588;-60
2021/11/23 05:14:46;;;;;;;92.02;43.17;;;;;;;-0.09;66.08;99983.45;1757423;80;21716;-59
2021/11/23 05:17:13;;;;;;;49.50;22.42;;;;;;;-0.13;66.06;99989.87;1766905;80;21522;-59
2021/11/23 05:19:40;;;;;;;32.05;16.97;;;;;;;-0.22;66.17;99989.40;1763996;80;21593;-59
2021/11/23 05:22:08;;;;;;;24.47;12.25;;;;;;;-0.31;66.36;99991.92;1760685;80;21784;-59
2021/11/23 05:24:35;;;;;;;15.65;7.92;;;;;;;-0.38;66.66;99988.85;1757310;80;21435;-59
2021/11/23 05:27:03;;;;;;;12.43;6.12;;;;;;;-0.38;66.73;99992.29;1774686;80;21497;-61
2021/11/23 05:29:32;;;;;;;8.70;4.53;;;;;;;-0.37;66.92;99994.47;1765078;79;21057;-59
2021/11/23 05:31:59;;;;;;;7.95;5.30;;;;;;;-0.37;67.07;99999.20;1765054;80;21589;-59
2021/11/23 05:34:26;;;;;;;8.50;4.58;;;;;;;-0.33;67.18;99996.22;1757399;80;21426;-60
2021/11/23 05:36:53;;;;;;;9.30;4.63;;;;;;;-0.34;67.27;99995.36;1765397;80;21103;-59
2021/11/23 05:39:20;;;;;;;5.07;4.13;;;;;;;-0.36;67.17;99997.04;1766293;80;21621;-59
2021/11/23 05:41:49;;;;;;;7.50;5.12;;;;;;;-0.35;67.24;99997.92;1767504;80;21490;-59
2021/11/23 05:44:16;;;;;;;9.50;5.67;;;;;;;-0.35;67.14;100003.09;1766223;80;21504;-59
2021/11/23 05:46:44;;;;;;;9.58;5.85;;;;;;;-0.36;66.96;100010.39;1765793;80;22497;-59
2021/11/23 05:49:11;;;;;;;6.30;4.60;;;;;;;-0.46;66.93;100012.91;1760586;80;21446;-59
2021/11/23 05:51:40;;;;;;;8.77;6.53;;;;;;;-0.57;67.14;100011.95;1765899;80;21495;-59
2021/11/23 05:54:06;;;;;;;12.30;6.58;;;;;;;-0.64;67.24;100021.78;1750073;80;21985;-59
2021/11/23 05:56:33;;;;;;;9.10;5.62;;;;;;;-0.72;67.23;100026.03;1760166;80;21033;-59
2021/11/23 05:59:00;;;;;;;7.13;5.00;;;;;;;-0.80;67.59;100033.28;1756272;80;21787;-60
2021/11/23 06:01:28;;;;;;;8.18;5.33;;;;;;;-0.81;67.58;100035.44;1762475;80;21419;-59
2021/11/23 06:03:55;;;;;;;7.87;5.22;;;;;;;-0.83;67.77;100039.72;1750662;80;20983;-59
2021/11/23 06:06:22;;;;;;;12.18;6.92;;;;;;;-0.84;67.89;100047.45;1764036;80;21514;-59
2021/11/23 06:08:49;;;;;;;7.28;5.58;;;;;;;-0.84;67.96;100057.77;1759121;80;21958;-58
2021/11/23 06:11:18;;;;;;;11.95;6.30;;;;;;;-0.93;68.06;100065.42;1758517;80;21392;-60
2021/11/23 06:13:45;;;;;;;7.95;5.65;;;;;;;-1.03;68.42;100064.46;1764930;80;21448;-59
2021/11/23 06:16:13;;;;;;;9.95;5.97;;;;;;;-0.98;68.72;100073.09;1756232;80;20978;-58
2021/11/23 06:18:42;;;;;;;15.40;6.83;;;;;;;-0.93;68.73;100074.02;1762361;80;21554;-57
2021/11/23 06:21:08;;;;;;;12.40;6.95;;;;;;;-0.89;68.88;100082.23;1765434;80;21442;-56
2021/11/23 06:23:35;;;;;;;9.35;6.85;;;;;;;-0.91;69.01;100083.08;1755250;80;21859;-57
2021/11/23 06:26:02;;;;;;;11.87;7.10;;;;;;;-0.88;69.12;100082.69;1755716;80;21100;-57
2021/11/23 06:28:30;;;;;;;14.30;7.50;;;;;;;-0.86;69.51;100077.11;1760047;80;21612;-57
2021/11/23 06:30:57;;;;;;;10.20;6.87;;;;;;;-0.75;69.42;100091.44;1760836;80;21470;-56
2021/11/23 06:33:24;;;;;;;13.15;7.17;;;;;;;-0.68;69.24;100100.09;1757752;80;21562;-56
2021/11/23 06:35:51;;;;;;;12.35;7.45;;;;;;;-0.74;69.11;100097.45;1754477;80;22048;-56
2021/11/23 06:38:18;;;;;;;12.65;8.05;;;;;;;-0.77;69.46;100099.59;1758584;80;21418;-56
2021/11/23 06:40:45;;;;;;;17.90;9.95;;;;;;;-0.67;69.54;100100.11;1761717;80;20983;-57
2021/11/23 06:43:12;;;;;;;16.05;10.18;;;;;;;-0.60;69.35;100094.17;1758152;80;21526;-55
2021/11/23 06:45:40;;;;;;;17.30;10.03;;;;;;;-0.53;69.29;100100.67;1757620;80;21687;-54
2021/11/23 06:48:11;;;;;;;17.37;10.70;;;;;;;-0.49;69.17;100106.30;1752653;80;22041;-55
2021/11/23 06:50:36;;;;;;;15.75;9.73;;;;;;;-0.51;69.51;100102.84;1756510;80;21105;-54
2021/11/23 06:53:04;;;;;;;23.65;10.00;;;;;;;-0.49;69.55;100099.45;1748529;80;21562;-54
2021/11/23 06:55:31;;;;;;;16.32;10.20;;;;;;;-0.49;69.59;100102.03;1748448;80;21512;-56
2021/11/23 06:57:58;;;;;;;19.12;10.95;;;;;;;-0.49;69.51;100111.47;1746032;80;21581;-56
2021/11/23 07:00:25;;;;;;;19.20;10.23;;;;;;;-0.51;69.46;100103.73;1745839;80;21579;-59
2021/11/23 07:02:52;;;;;;;16.12;9.88;;;;;;;-0.52;69.56;100104.57;1747938;80;21470;-55
2021/11/23 07:05:19;;;;;;;13.80;9.20;;;;;;;-0.52;69.45;100108.88;1750963;80;21455;-55
2021/11/23 07:07:47;;;;;;;27.70;13.08;;;;;;;-0.59;69.79;100117.84;1737943;80;21958;-56
2021/11/23 07:10:14;;;;;;;30.40;13.98;;;;;;;-0.58;69.75;100113.56;1746889;80;21179;-55
2021/11/23 07:12:41;;;;;;;;;;;;;;;-0.57;69.76;100109.25;1753131;80;21914;-56
2021/11/23 07:15:11;;;;;;;26.82;13.70;;;;;;;-0.49;69.77;100116.23;1746803;80;20138;-55
2021/11/23 07:17:38;;;;;;;26.68;14.55;;;;;;;-0.40;69.48;100110.27;1751455;79;21711;-55
2021/11/23 07:20:07;;;;;;;26.13;14.33;;;;;;;-0.33;69.24;100109.91;1720063;81;21720;-55
2021/11/23 07:22:34;;;;;;;22.85;12.82;;;;;;;-0.26;69.31;100099.64;1747890;80;21666;-56
2021/11/23 07:25:01;;;;;;;21.52;14.38;;;;;;;-0.22;69.28;100097.52;1756388;80;21863;-55
2021/11/23 07:27:28;;;;;;;18.75;12.33;;;;;;;-0.09;69.09;100094.61;1752117;80;21577;-56
2021/11/23 07:29:55;;;;;;;24.80;12.53;;;;;;;0.02;68.60;100101.56;1747177;80;21510;-55
2021/11/23 07:32:22;;;;;;;20.77;12.97;;;;;;;0.10;68.71;100106.38;1748605;80;21550;-55
2021/11/23 07:34:49;;;;;;;26.45;14.18;;;;;;;0.15;68.71;100111.14;1746532;80;21010;-56
2021/11/23 07:37:16;;;;;;;21.23;12.70;;;;;;;0.23;68.21;100110.78;1745293;80;21745;-55
2021/11/23 07:39:44;;;;;;;20.17;11.08;;;;;;;0.30;68.00;100109.97;1744155;80;21494;-56
2021/11/23 07:42:11;;;;;;;16.17;11.00;;;;;;;0.39;67.89;100106.12;1745919;80;21511;-56
2021/11/23 07:44:38;;;;;;;22.90;11.10;;;;;;;0.48;67.62;100110.49;1720641;81;21661;-56
2021/11/23 07:47:05;;;;;;;18.65;11.20;;;;;;;0.54;67.56;100107.93;1740963;80;21487;-55
2021/11/23 07:49:32;;;;;;;16.17;9.63;;;;;;;0.61;67.25;100102.38;1746179;80;21709;-55
2021/11/23 07:51:59;;;;;;;17.83;10.30;;;;;;;0.68;66.81;100110.61;1752950;80;21570;-56
2021/11/23 07:54:26;;;;;;;15.48;9.38;;;;;;;0.78;66.80;100112.80;1754871;79;21600;-57
2021/11/23 07:56:53;;;;;;;15.00;9.30;;;;;;;0.89;66.40;100111.56;1756419;80;21530;-56
2021/11/23 07:59:20;;;;;;;15.20;9.33;;;;;;;1.00;65.93;100113.77;1757024;80;20942;-57
2021/11/23 08:01:47;;;;;;;13.35;9.20;;;;;;;1.10;65.71;100118.10;1756279;80;21769;-56
2021/11/23 08:04:14;;;;;;;14.05;8.53;;;;;;;1.22;64.93;100117.27;1763645;80;21562;-56
2021/11/23 08:06:43;;;;;;;13.95;8.03;;;;;;;1.27;64.65;100109.53;1762191;80;21065;-55
2021/11/23 08:09:10;;;;;;;11.80;8.10;;;;;;;1.32;64.49;100109.12;1751215;80;21537;-56
2021/11/23 08:11:38;;;;;;;12.95;7.80;;;;;;;1.38;64.21;100105.23;1757834;80;21401;-56
2021/11/23 08:14:05;;;;;;;11.33;7.13;;;;;;;1.41;63.79;100104.36;1758325;80;21880;-56
2021/11/23 08:16:34;;;;;;;10.90;6.80;;;;;;;1.44;63.48;100112.16;1764614;80;21535;-56
2021/11/23 08:19:01;;;;;;;11.45;6.70;;;;;;;1.48;62.47;100112.15;1750359;80;21476;-56
2021/11/23 08:21:30;;;;;;;10.53;6.78;;;;;;;1.46;62.64;100116.47;1763490;80;20982;-56
2021/11/23 08:23:57;;;;;;;8.70;5.62;;;;;;;1.52;62.32;100104.80;1743574;80;20938;-56
2021/11/23 08:26:25;;;;;;;10.50;6.47;;;;;;;1.57;62.18;100101.37;1742617;80;21814;-56
2021/11/23 08:28:52;;;;;;;9.03;5.83;;;;;;;1.63;61.44;100084.09;1756269;80;21593;-55
2021/11/23 08:31:20;;;;;;;7.40;5.00;;;;;;;1.70;61.47;100086.27;1755304;80;21479;-56
2021/11/23 08:33:47;;;;;;;7.10;5.15;;;;;;;1.82;60.95;100087.98;1756766;80;21050;-56
2021/11/23 08:36:14;;;;;;;8.98;5.62;;;;;;;1.96;61.05;100090.16;1756874;80;21511;-56
2021/11/23 08:38:41;;;;;;;8.63;4.67;;;;;;;2.13;60.82;100079.33;1753344;80;21474;-56
2021/11/23 08:41:10;;;;;;;5.55;4.50;;;;;;;2.25;60.59;100081.02;1762577;80;21609;-56
2021/11/23 08:43:37;;;;;;;7.47;5.17;;;;;;;2.39;60.31;100077.53;1761377;80;21412;-56
2021/11/23 08:46:04;;;;;;;8.33;5.33;;;;;;;2.47;59.84;100071.46;1760923;79;21574;-56
2021/11/23 08:48:33;;;;;;;6.22;4.58;;;;;;;2.46;59.85;100079.25;1759594;80;21483;-56
2021/11/23 08:51:00;;;;;;;8.83;4.58;;;;;;;2.37;59.46;100074.94;1748729;80;22037;-56
2021/11/23 08:53:27;;;;;;;6.37;4.40;;;;;;;2.25;60.14;100081.02;1752731;80;20955;-57
2021/11/23 08:55:54;;;;;;;4.65;4.20;;;;;;;2.21;60.29;100084.50;1750664;80;21659;-57
2021/11/23 08:58:21;;;;;;;5.37;3.43;;;;;;;2.21;60.55;100080.61;1747718;80;21590;-57
2021/11/23 09:00:48;;;;;;;7.03;4.05;;;;;;;2.12;59.91;100072.39;1747961;80;21881;-57
2021/11/23 09:03:14;;;;;;;10.07;4.20;;;;;;;2.03;60.03;100073.70;1744660;80;22131;-58
2021/11/23 09:05:44;;;;;;;4.17;3.07;;;;;;;2.03;60.13;100079.33;1749561;80;21456;-60
2021/11/23 09:08:11;;;;;;;3.50;3.20;;;;;;;2.01;60.34;100079.77;1750506;80;21621;-56
2021/11/23 09:10:40;;;;;;;4.40;3.37;;;;;;;1.99;60.00;100075.02;1750467;79;21479;-59
2021/11/23 09:13:07;;;;;;;4.25;3.27;;;;;;;2.04;60.03;100069.40;1743249;79;21492;-57
2021/11/23 09:15:34;;;;;;;3.67;3.17;;;;;;;2.00;60.26;100070.24;1749836;80;21799;-59
2021/11/23 09:18:03;;;;;;;4.12;3.12;;;;;;;2.02;60.08;100066.80;1755893;80;22006;-58
2021/11/23 09:20:36;;;;;;;3.92;2.85;;;;;;;2.06;60.12;100056.84;1742517;80;21537;-57
2021/11/23 09:23:11;;;;;;;3.08;2.77;;;;;;;2.12;60.22;100064.61;1743423;80;20999;-56
2021/11/23 09:25:42;;;;;;;3.45;2.55;;;;;;;2.17;60.20;100065.91;1753573;80;21616;-57
2021/11/23 09:28:09;;;;;;;3.75;3.15;;;;;;;2.18;60.08;100054.66;1740570;80;21978;-57
2021/11/23 09:30:36;;;;;;;4.37;3.00;;;;;;;2.23;60.14;100056.81;1742301;80;21490;-57
2021/11/23 09:33:03;;;;;;;5.53;3.47;;;;;;;2.22;60.00;100055.52;1741130;80;21566;-57
2021/11/23 09:35:31;;;;;;;;;;;;;;;2.17;59.95;100052.95;1757282;80;21447;-57
2021/11/23 09:37:58;;;;;;;5.75;3.30;;;;;;;2.09;59.72;100057.27;1745022;80;20397;-56
2021/11/23 09:40:25;;;;;;;6.50;2.98;;;;;;;2.05;60.16;100062.03;1748750;80;21874;-57
2021/11/23 09:42:54;;;;;;;;;;;;;;;2.07;60.28;100057.30;1749704;80;21599;-56
2021/11/23 09:45:21;;;;;;;5.58;2.92;;;;;;;2.11;59.95;100055.53;1748408;80;20477;-56
2021/11/23 09:47:48;;;;;;;6.60;3.33;;;;;;;2.05;60.21;100049.06;1758566;80;21049;-58
2021/11/23 09:50:14;;;;;;;4.33;2.93;;;;;;;2.03;60.39;100050.35;1748809;80;21506;-56
2021/11/23 09:52:42;;;;;;;4.28;3.30;;;;;;;1.98;60.53;100046.92;1753969;80;21752;-56
2021/11/23 09:55:10;;;;;;;3.53;3.23;;;;;;;2.11;60.88;100050.34;1753627;80;21474;-56
2021/11/23 09:57:37;;;;;;;3.98;3.22;;;;;;;2.43;60.19;100048.09;1741312;80;21436;-56
2021/11/23 10:00:30;;;;;;;5.40;3.67;;;;;;;2.61;59.96;100040.25;1742797;80;21431;-57
2021/11/23 10:03:18;;;;;;;4.85;3.55;;;;;;;2.98;59.68;100045.28;1735071;80;21582;-57
2021/11/23 10:05:45;;;;;;;4.30;3.52;;;;;;;3.11;59.37;100044.78;1745595;80;21809;-56
2021/11/23 10:08:17;;;;;;;5.03;3.45;;;;;;;3.16;58.95;100029.16;1753483;80;21590;-57
2021/11/23 10:10:52;;;;;;;3.67;2.72;;;;;;;3.25;58.72;100024.75;1747749;80;21514;-56
2021/11/23 10:13:22;;;;;;;2.85;2.40;;;;;;;3.27;58.39;100027.34;1748723;80;21518;-56
2021/11/23 10:15:50;;;;;;;4.80;2.40;;;;;;;3.24;57.98;100027.35;1744438;80;21053;-57
2021/11/23 10:18:23;;;;;;;3.05;2.58;;;;;;;3.17;58.13;100021.80;1746209;80;21789;-56
2021/11/23 10:20:58;;;;;;;6.58;3.50;;;;;;;3.18;58.08;100021.77;1750221;79;21585;-56
2021/11/23 10:23:35;;;;;;;7.67;3.90;;;;;;;3.14;58.12;100023.11;1751776;80;21444;-55
2021/11/23 10:26:15;;;;;;;6.67;4.05;;;;;;;3.09;58.18;100021.41;1754562;80;22250;-56
2021/11/23 10:29:00;;;;;;;5.72;3.42;;;;;;;3.10;58.50;100016.62;1747500;80;21491;-56
2021/11/23 10:31:34;;;;;;;5.25;4.05;;;;;;;3.18;58.28;100007.47;1749335;80;21848;-57
2021/11/23 10:34:04;;;;;;;9.78;4.10;;;;;;;3.43;58.24;100008.62;1753969;80;21518;-56
2021/11/23 10:36:35;;;;;;;9.58;3.98;;;;;;;3.62;57.51;100005.42;1745231;80;21654;-57
2021/11/23 10:39:14;;;;;;;7.47;3.40;;;;;;;3.74;57.26;100000.10;1753837;80;21027;-56
2021/11/23 10:41:45;;;;;;;7.03;3.40;;;;;;;3.80;57.22;100001.78;1750200;80;21539;-57
2021/11/23 10:44:28;;;;;;;3.77;3.17;;;;;;;3.85;56.70;99993.06;1735149;80;22154;-56
2021/11/23 10:47:05;;;;;;;4.58;3.15;;;;;;;4.28;56.17;99984.80;1761600;80;21431;-56
2021/11/23 10:49:46;;;;;;;3.83;3.33;;;;;;;5.25;54.91;99980.00;1755269;80;21010;-57
2021/11/23 10:52:36;;;;;;;3.52;2.85;;;;;;;6.49;52.19;99976.06;1746943;80;21049;-58
2021/11/23 10:55:29;;;;;;;3.50;3.20;;;;;;;6.52;49.11;99970.34;1756140;80;21616;-55
2021/11/23 10:57:59;;;;;;;3.10;2.87;;;;;;;5.83;50.19;99972.95;1754347;80;21780;-56
2021/11/23 11:00:29;;;;;;;3.92;2.70;;;;;;;5.25;50.38;99973.06;1758766;80;21400;-55
2021/11/23 11:03:01;;;;;;;3.80;2.90;;;;;;;5.28;50.75;99970.84;1752675;80;21423;-56
2021/11/23 11:05:39;;;;;;;3.67;3.27;;;;;;;5.98;50.24;99954.87;1764230;80;21483;-57
2021/11/23 11:08:07;;;;;;;4.42;3.08;;;;;;;6.23;49.12;99961.35;1756361;80;21458;-57
2021/11/23 11:10:56;;;;;;;3.45;2.95;;;;;;;6.28;48.98;99965.62;1762067;80;21602;-57
2021/11/23 11:13:25;;;;;;;6.08;3.50;;;;;;;6.00;49.79;99970.06;1672548;84;21484;-57
2021/11/23 11:15:54;;;;;;;4.47;3.67;;;;;;;5.60;50.10;99966.84;1671237;83;21516;-56
2021/11/23 11:18:22;;;;;;;3.85;3.52;;;;;;;5.22;50.79;99952.25;1649447;83;21508;-57
2021/11/23 11:20:57;;;;;;;3.92;3.40;;;;;;;4.92;51.65;99945.77;1673586;83;21622;-57
2021/11/23 11:23:33;;;;;;;4.25;3.10;;;;;;;4.65;52.21;99941.38;1674958;83;22136;-56
2021/11/23 11:26:16;;;;;;;4.08;3.15;;;;;;;4.44;52.49;99935.13;1672321;83;21547;-56
2021/11/23 11:29:01;;;;;;;5.05;2.85;;;;;;;4.20;53.11;99936.30;1671139;83;21490;-57
2021/11/23 11:31:38;;;;;;;4.20;3.00;;;;;;;4.12;53.41;99936.39;1673119;83;21515;-56
2021/11/23 11:34:31;;;;;;;6.55;3.22;;;;;;;3.97;53.89;99941.78;1674832;83;21573;-56
2021/11/23 11:37:16;;;;;;;5.55;3.50;;;;;;;3.81;54.13;99935.89;1668542;83;22251;-55
2021/11/23 11:39:48;;;;;;;3.67;3.27;;;;;;;3.74;54.60;99945.48;1673476;84;21537;-55